Time;durP1;ratioP1;P1;durP2;ratioP2;P2;SDS_P1;SDS_P2;PMS_P1;PMS_P2;Temp;Humidity;BMP_temperature;BMP_pressure;BME280_temperature;BME280_humidity;BME280_pressure;Samples;Min_cycle;Max_cycle;Signal;HPM_P1;HPM_P2
2022/05/16 00:00:00;;;;;;;4.93;2.65;;;14.20;99.90;;;;;;5074654;28;20025;-52
2022/05/16 00:02:26;;;;;;;3.65;2.47;;;14.20;99.90;;;;;;5073076;28;20035;-49
2022/05/16 00:04:52;;;;;;;8.10;3.75;;;14.10;99.90;;;;;;5074656;28;20025;-49
2022/05/16 00:07:20;;;;;;;5.68;2.55;;;14.10;99.90;;;;;;5074347;28;20081;-54
2022/05/16 00:09:46;;;;;;;5.25;3.00;;;14.10;99.90;;;;;;5073014;28;20059;-49
2022/05/16 00:12:13;;;;;;;7.80;3.30;;;14.10;99.90;;;;;;5074329;28;20063;-50
2022/05/16 00:14:41;;;;;;;4.40;3.28;;;14.00;99.90;;;;;;5074014;28;20407;-49
2022/05/16 00:17:07;;;;;;;5.18;3.05;;;14.00;99.90;;;;;;5072913;28;20024;-51
2022/05/16 00:19:33;;;;;;;6.15;3.00;;;13.90;99.90;;;;;;5073339;28;20024;-50
2022/05/16 00:21:58;;;;;;;4.32;3.05;;;13.90;99.90;;;;;;5073955;28;20024;-50
2022/05/16 00:24:26;;;;;;;3.63;2.65;;;13.90;99.90;;;;;;5073126;28;20032;-49
2022/05/16 00:26:58;;;;;;;4.20;3.03;;;13.90;99.90;;;;;;5073011;28;20033;-49
2022/05/16 00:29:24;;;;;;;4.43;2.90;;;13.80;99.90;;;;;;5072711;28;20077;-48
2022/05/16 00:31:50;;;;;;;6.70;3.15;;;13.80;99.90;;;;;;5072636;28;20029;-50
2022/05/16 00:34:16;;;;;;;10.82;2.95;;;13.80;99.90;;;;;;5072983;28;20026;-49
2022/05/16 00:36:47;;;;;;;5.85;2.78;;;13.70;99.90;;;;;;5074486;28;20028;-49
2022/05/16 00:39:14;;;;;;;7.20;3.07;;;13.80;99.90;;;;;;5072565;28;20031;-51
2022/05/16 00:41:42;;;;;;;5.60;2.90;;;13.70;99.90;;;;;;5072394;28;20283;-50
2022/05/16 00:44:08;;;;;;;6.32;3.17;;;13.70;99.90;;;;;;5072421;28;20112;-49
2022/05/16 00:46:33;;;;;;;6.70;3.55;;;13.80;99.90;;;;;;5072647;28;20048;-51
2022/05/16 00:49:00;;;;;;;8.77;3.08;;;13.70;99.90;;;;;;5073138;28;20082;-49
2022/05/16 00:51:54;;;;;;;7.15;3.70;;;13.70;99.90;;;;;;5072201;28;20035;-51
2022/05/16 00:54:27;;;;;;;9.07;3.10;;;13.60;99.90;;;;;;5072253;28;20115;-50
2022/05/16 00:56:59;;;;;;;4.47;2.78;;;13.60;99.90;;;;;;5072510;28;20025;-51
2022/05/16 00:59:33;;;;;;;11.20;3.45;;;13.50;99.90;;;;;;5072427;28;20050;-52
2022/05/16 01:04:49;;;;;;;4.63;2.83;;;13.50;99.90;;;;;;5073687;28;20047;-50
2022/05/16 01:07:27;;;;;;;4.88;3.15;;;13.50;99.90;;;;;;5072070;28;20028;-50
2022/05/16 01:09:54;;;;;;;8.98;3.25;;;13.40;99.90;;;;;;5072708;28;20037;-51
2022/05/16 01:12:23;;;;;;;7.00;3.78;;;13.40;99.90;;;;;;5072340;28;20028;-49
2022/05/16 01:14:54;;;;;;;5.20;2.95;;;13.40;99.90;;;;;;5072403;28;20036;-49
2022/05/16 01:17:20;;;;;;;6.97;3.47;;;13.40;99.90;;;;;;5073168;28;20031;-52
2022/05/16 01:19:46;;;;;;;5.63;3.22;;;13.30;99.90;;;;;;5072260;28;20115;-49
2022/05/16 01:22:22;;;;;;;7.30;3.10;;;13.20;99.90;;;;;;5072364;28;20024;-51
2022/05/16 01:24:47;;;;;;;4.80;2.78;;;13.20;99.90;;;;;;5073410;28;20506;-53
2022/05/16 01:27:13;;;;;;;6.53;3.22;;;13.20;99.90;;;;;;5071812;28;20020;-49
2022/05/16 01:29:39;;;;;;;8.77;3.33;;;13.20;99.90;;;;;;5073071;28;20127;-49
2022/05/16 01:32:04;;;;;;;9.57;3.58;;;13.20;99.90;;;;;;5071799;28;20031;-49
2022/05/16 01:34:30;;;;;;;4.32;3.03;;;13.20;99.90;;;;;;5073313;28;20021;-50
2022/05/16 01:36:56;;;;;;;11.10;2.92;;;13.20;99.90;;;;;;5071879;28;20020;-49
2022/05/16 01:39:22;;;;;;;7.57;3.80;;;13.20;99.90;;;;;;5073167;28;20086;-53
2022/05/16 01:41:47;;;;;;;8.77;3.60;;;13.20;99.90;;;;;;5072930;28;20032;-51
2022/05/16 01:44:13;;;;;;;7.78;3.45;;;13.20;99.90;;;;;;5072518;28;20071;-52
2022/05/16 01:46:40;;;;;;;8.23;3.75;;;13.20;99.90;;;;;;5072020;28;20025;-49
2022/05/16 01:49:07;;;;;;;8.65;3.40;;;13.20;99.90;;;;;;5072856;28;20017;-49
2022/05/16 01:51:33;;;;;;;7.35;2.70;;;13.20;99.90;;;;;;5071651;28;20025;-52
2022/05/16 01:54:01;;;;;;;4.93;2.80;;;13.20;99.90;;;;;;5071988;28;20150;-50
2022/05/16 01:56:27;;;;;;;9.02;3.63;;;13.10;99.90;;;;;;5071532;28;20059;-51
2022/05/16 01:58:52;;;;;;;6.95;4.07;;;13.10;99.90;;;;;;5072752;28;20059;-49
2022/05/16 02:01:18;;;;;;;10.90;3.70;;;13.10;99.90;;;;;;5073036;28;20021;-49
2022/05/16 02:03:46;;;;;;;5.80;3.20;;;13.10;99.90;;;;;;5071558;28;20020;-49
2022/05/16 02:06:13;;;;;;;4.43;3.00;;;12.90;99.90;;;;;;5072995;28;20025;-48
2022/05/16 02:08:39;;;;;;;9.75;4.05;;;12.90;99.90;;;;;;5071523;28;20096;-54
2022/05/16 02:11:06;;;;;;;8.88;3.13;;;12.90;99.90;;;;;;5072771;28;20028;-51
2022/05/16 02:13:40;;;;;;;6.93;3.38;;;12.90;99.90;;;;;;5071876;28;20043;-49
2022/05/16 02:16:06;;;;;;;5.68;3.45;;;12.90;99.90;;;;;;5072980;28;20384;-49
2022/05/16 02:18:32;;;;;;;8.15;4.35;;;12.90;99.90;;;;;;5072624;28;20048;-52
2022/05/16 02:26:27;;;;;;;7.97;3.60;;;12.70;99.90;;;;;;5076814;28;20148;-51
2022/05/16 02:28:53;;;;;;;7.63;3.78;;;12.80;99.90;;;;;;5075295;28;20486;-53
2022/05/16 02:31:20;;;;;;;8.77;3.75;;;12.80;99.90;;;;;;5076291;28;20025;-52
2022/05/16 02:33:46;;;;;;;8.30;3.58;;;12.80;99.90;;;;;;5075860;28;20130;-51
2022/05/16 02:36:12;;;;;;;5.57;3.15;;;12.80;99.90;;;;;;5076177;28;20044;-49
2022/05/16 02:38:38;;;;;;;10.75;3.72;;;12.80;99.90;;;;;;5074940;28;20064;-51
2022/05/16 02:41:04;;;;;;;8.48;3.15;;;12.80;99.90;;;;;;5076234;28;20061;-50
2022/05/16 02:43:29;;;;;;;5.35;3.17;;;12.80;99.90;;;;;;5075069;28;20029;-51
2022/05/16 02:45:55;;;;;;;4.18;2.88;;;12.70;99.90;;;;;;5076325;28;20021;-52
2022/05/16 02:48:20;;;;;;;4.32;2.90;;;12.70;99.90;;;;;;5076001;28;20020;-55
2022/05/16 02:50:47;;;;;;;6.00;2.90;;;12.70;99.90;;;;;;5075962;28;20020;-56
2022/05/16 02:53:12;;;;;;;5.38;2.80;;;12.70;99.90;;;;;;5075917;28;20095;-49
2022/05/16 02:55:38;;;;;;;5.35;3.53;;;12.60;99.90;;;;;;5076160;28;20017;-50
2022/05/16 02:58:07;;;;;;;12.38;4.82;;;12.60;99.90;;;;;;5074685;28;20017;-49
2022/05/16 03:00:33;;;;;;;11.38;4.85;;;12.70;99.90;;;;;;5074331;28;20101;-50
2022/05/16 03:02:58;;;;;;;9.25;3.78;;;12.70;99.90;;;;;;5076104;28;20051;-49
2022/05/16 03:05:24;;;;;;;7.60;3.45;;;12.70;99.90;;;;;;5075524;28;20055;-49
2022/05/16 03:07:50;;;;;;;6.95;3.35;;;12.80;99.90;;;;;;5074263;28;20066;-50
2022/05/16 03:10:15;;;;;;;5.82;3.42;;;12.80;99.90;;;;;;5075579;28;20020;-51
2022/05/16 03:12:43;;;;;;;9.40;3.35;;;12.80;99.90;;;;;;5074949;28;20024;-54
2022/05/16 03:15:10;;;;;;;9.45;3.20;;;12.80;99.90;;;;;;5074548;28;20036;-53
2022/05/16 03:17:35;;;;;;;9.68;3.80;;;13.00;99.90;;;;;;5076047;28;20028;-51
2022/05/16 03:20:02;;;;;;;7.70;3.90;;;13.10;99.90;;;;;;5074228;28;20032;-52
2022/05/16 03:22:27;;;;;;;8.40;3.53;;;13.20;99.90;;;;;;5075631;28;20028;-51
2022/05/16 03:24:53;;;;;;;9.57;4.28;;;13.20;99.90;;;;;;5074482;28;20020;-52
2022/05/16 03:27:19;;;;;;;10.60;4.00;;;13.30;99.90;;;;;;5075615;28;20021;-51
2022/05/16 03:29:46;;;;;;;6.75;4.30;;;13.30;99.90;;;;;;5073980;28;20021;-53
2022/05/16 03:32:12;;;;;;;5.68;3.83;;;13.30;99.90;;;;;;5073503;28;20028;-54
2022/05/16 03:34:37;;;;;;;4.82;3.60;;;13.50;99.90;;;;;;5073828;28;20185;-51
2022/05/16 03:37:03;;;;;;;7.72;3.58;;;13.70;99.90;;;;;;5073735;28;20024;-55
2022/05/16 03:42:13;;;;;;;11.18;4.38;;;13.60;99.90;;;;;;5075221;28;20081;-56
2022/05/16 03:44:38;;;;;;;8.10;3.85;;;13.40;99.90;;;;;;5075275;28;20100;-54
2022/05/16 03:47:04;;;;;;;6.00;3.95;;;13.40;99.90;;;;;;5073577;28;20017;-53
2022/05/16 03:49:30;;;;;;;8.85;4.75;;;13.40;99.90;;;;;;5075034;28;20016;-54
2022/05/16 03:51:56;;;;;;;5.93;3.47;;;13.40;99.90;;;;;;5074447;28;20025;-54
2022/05/16 03:54:21;;;;;;;13.07;4.63;;;13.50;99.90;;;;;;5074600;28;20021;-55
2022/05/16 03:56:47;;;;;;;6.15;3.65;;;13.60;99.90;;;;;;5074256;28;20020;-56
2022/05/16 03:59:13;;;;;;;7.43;3.95;;;13.60;99.90;;;;;;5073324;28;20052;-55
2022/05/16 04:01:39;;;;;;;8.52;3.80;;;13.60;99.90;;;;;;5074414;28;20529;-51
2022/05/16 04:04:05;;;;;;;5.38;3.33;;;13.60;99.90;;;;;;5074740;28;20514;-54
2022/05/16 04:06:34;;;;;;;5.50;3.10;;;13.60;99.90;;;;;;5073547;28;20021;-56
2022/05/16 04:09:00;;;;;;;7.32;3.30;;;13.70;99.90;;;;;;5074586;28;20025;-54
2022/05/16 04:11:26;;;;;;;6.05;2.80;;;13.70;99.90;;;;;;5074502;28;20052;-55
2022/05/16 04:13:52;;;;;;;6.20;3.47;;;13.90;99.90;;;;;;5072899;28;20064;-50
2022/05/16 04:16:17;;;;;;;8.43;3.40;;;14.10;99.90;;;;;;5074147;28;20054;-54
2022/05/16 04:18:44;;;;;;;6.93;3.75;;;14.30;99.90;;;;;;5074498;28;20028;-51
2022/05/16 04:21:11;;;;;;;6.40;3.55;;;14.40;99.90;;;;;;5072731;28;20028;-55
2022/05/16 04:23:37;;;;;;;6.40;3.50;;;14.60;99.90;;;;;;5073142;28;20025;-51
2022/05/16 04:26:02;;;;;;;9.23;4.13;;;14.90;99.90;;;;;;5072820;28;20043;-52
2022/05/16 04:28:28;;;;;;;7.63;4.13;;;15.20;99.90;;;;;;5074271;28;20491;-51
2022/05/16 04:30:53;;;;;;;8.45;4.28;;;15.40;99.90;;;;;;5073094;28;20025;-55
2022/05/16 04:33:19;;;;;;;10.50;4.68;;;15.50;99.90;;;;;;5074071;28;20035;-51
2022/05/16 04:35:45;;;;;;;9.60;3.90;;;15.50;99.90;;;;;;5073231;28;20024;-52
2022/05/16 04:38:11;;;;;;;9.95;3.95;;;15.40;99.90;;;;;;5073089;28;20027;-56
2022/05/16 04:42:40;;;;;;;9.35;4.03;;;15.40;99.90;;;;;;5072585;28;20056;-52
2022/05/16 04:43:22;;;;;;;7.85;3.40;;;15.20;99.90;;;;;;5073700;28;20111;-53
2022/05/16 04:45:47;;;;;;;9.57;4.05;;;15.30;99.90;;;;;;5073128;28;20063;-53
2022/05/16 04:48:13;;;;;;;9.63;3.90;;;15.30;99.90;;;;;;5074418;28;20020;-52
2022/05/16 04:50:38;;;;;;;10.90;4.28;;;15.30;99.90;;;;;;5073928;28;20104;-53
2022/05/16 04:53:05;;;;;;;10.35;3.42;;;15.40;99.90;;;;;;5072796;28;20074;-53
2022/05/16 04:55:31;;;;;;;10.15;3.33;;;15.40;99.90;;;;;;5072436;28;20024;-54
2022/05/16 04:57:57;;;;;;;4.72;3.42;;;15.50;99.90;;;;;;5074044;28;20033;-50
2022/05/16 05:00:24;;;;;;;12.93;4.28;;;15.60;99.90;;;;;;5073580;28;20029;-51
2022/05/16 05:02:49;;;;;;;8.18;3.30;;;15.60;99.90;;;;;;5073844;28;20033;-49
2022/05/16 05:05:16;;;;;;;11.80;4.05;;;15.60;99.90;;;;;;5072410;28;20017;-51
2022/05/16 05:07:43;;;;;;;9.50;3.95;;;15.50;99.90;;;;;;5073569;28;20023;-50
2022/05/16 05:15:40;;;;;;;10.43;3.50;;;15.90;99.90;;;;;;5073447;28;20043;-50
2022/05/16 05:18:06;;;;;;;10.90;4.22;;;16.50;99.90;;;;;;5073374;28;20032;-51
2022/05/16 05:20:32;;;;;;;7.10;3.70;;;17.00;99.90;;;;;;5072314;28;20064;-54
2022/05/16 05:22:58;;;;;;;8.70;3.22;;;17.50;99.90;;;;;;5072089;28;20029;-53
2022/05/16 05:25:24;;;;;;;4.60;3.15;;;17.80;99.90;;;;;;5073384;28;20025;-53
2022/05/16 05:27:50;;;;;;;7.22;3.53;;;18.40;99.90;;;;;;5073431;28;20024;-53
2022/05/16 05:30:19;;;;;;;6.93;3.00;;;19.00;99.90;;;;;;5071980;28;20111;-50
2022/05/16 05:32:46;;;;;;;16.17;4.00;;;19.70;99.90;;;;;;5072557;28;20411;-54
2022/05/16 05:35:12;;;;;;;6.43;3.15;;;20.30;99.90;;;;;;5072387;28;20036;-54
2022/05/16 05:37:38;;;;;;;17.95;5.18;;;20.70;99.90;;;;;;5073080;28;20112;-54
2022/05/16 05:40:04;;;;;;;8.70;3.75;;;21.10;99.90;;;;;;5072905;28;20055;-57
2022/05/16 05:42:31;;;;;;;8.02;3.33;;;21.40;99.90;;;;;;5071961;28;20032;-54
2022/05/16 05:44:58;;;;;;;9.80;3.30;;;21.90;99.90;;;;;;5072976;28;20025;-54
2022/05/16 05:47:24;;;;;;;10.88;3.30;;;22.40;99.90;;;;;;5071801;28;20429;-54
2022/05/16 05:49:50;;;;;;;6.95;3.13;;;22.50;99.90;;;;;;5073162;28;20074;-55
2022/05/16 05:52:16;;;;;;;8.93;3.58;;;23.20;99.90;;;;;;5072299;28;20028;-55
2022/05/16 05:54:46;;;;;;;5.25;3.17;;;23.50;99.90;;;;;;5072197;28;20056;-57
2022/05/16 05:57:13;;;;;;;6.73;3.23;;;24.00;99.90;;;;;;5076769;28;20025;-55
2022/05/16 05:59:39;;;;;;;9.55;3.60;;;24.20;99.90;;;;;;5076077;28;20028;-57
2022/05/16 06:02:06;;;;;;;10.10;3.80;;;24.00;99.90;;;;;;5077128;28;20032;-57
2022/05/16 06:04:32;;;;;;;11.07;4.18;;;24.60;99.90;;;;;;5077055;28;20387;-56
2022/05/16 06:06:57;;;;;;;7.15;3.20;;;25.30;99.90;;;;;;5077117;28;20021;-56
2022/05/16 06:09:23;;;;;;;10.00;4.03;;;25.40;99.90;;;;;;5076924;28;20017;-56
2022/05/16 06:11:49;;;;;;;9.88;3.90;;;26.00;99.90;;;;;;5077025;28;20082;-55
2022/05/16 06:14:15;;;;;;;9.90;3.88;;;26.10;99.90;;;;;;5075697;28;20029;-57
2022/05/16 06:16:41;;;;;;;8.73;3.42;;;26.00;99.90;;;;;;5076994;28;20130;-56
2022/05/16 06:19:08;;;;;;;10.98;3.45;;;25.50;99.90;;;;;;5076671;28;20052;-56
2022/05/16 06:21:35;;;;;;;5.72;2.80;;;25.10;99.90;;;;;;5074936;28;20025;-57
2022/05/16 06:24:00;;;;;;;6.68;3.60;;;24.30;99.90;;;;;;5076065;28;20039;-57
2022/05/16 06:26:27;;;;;;;8.10;4.10;;;23.00;99.90;;;;;;5075780;28;20360;-55
2022/05/16 06:28:52;;;;;;;10.95;4.68;;;21.50;99.90;;;;;;5076583;28;20017;-52
2022/05/16 06:31:18;;;;;;;9.23;3.50;;;20.70;99.90;;;;;;5077000;28;20033;-51
2022/05/16 06:33:46;;;;;;;12.00;3.75;;;20.40;99.90;;;;;;5076996;28;20082;-51
2022/05/16 06:36:13;;;;;;;6.82;3.40;;;20.30;99.90;;;;;;5076479;28;20024;-56
2022/05/16 06:38:38;;;;;;;11.73;4.43;;;20.40;99.90;;;;;;5075176;28;20463;-56
2022/05/16 06:41:04;;;;;;;10.93;3.85;;;20.50;99.90;;;;;;5075052;28;20027;-54
2022/05/16 06:43:31;;;;;;;9.07;3.67;;;20.50;99.90;;;;;;5075126;28;20426;-55
2022/05/16 06:45:57;;;;;;;8.55;4.00;;;20.50;99.90;;;;;;5076420;28;20048;-54
2022/05/16 06:48:22;;;;;;;8.75;4.10;;;20.40;99.90;;;;;;5075855;28;20374;-55
2022/05/16 06:50:49;;;;;;;12.65;4.57;;;20.40;99.90;;;;;;5075139;28;20169;-54
2022/05/16 06:53:22;;;;;;;13.35;4.05;;;20.40;99.90;;;;;;5074857;28;20025;-56
2022/05/16 06:55:47;;;;;;;9.23;3.53;;;20.30;99.90;;;;;;5074967;28;20036;-56
2022/05/16 06:58:13;;;;;;;11.68;3.80;;;20.40;99.90;;;;;;5075667;28;20017;-54
2022/05/16 07:00:39;;;;;;;12.45;3.85;;;20.70;99.90;;;;;;5075852;28;20020;-56
2022/05/16 07:03:05;;;;;;;10.10;3.50;;;20.90;99.90;;;;;;5075876;28;20024;-57
2022/05/16 07:05:32;;;;;;;17.77;4.25;;;21.20;99.90;;;;;;5074982;28;20036;-57
2022/05/16 07:07:58;;;;;;;11.93;4.50;;;21.50;99.90;;;;;;5073511;28;20020;-55
2022/05/16 07:10:24;;;;;;;10.77;4.07;;;22.20;99.90;;;;;;5074890;28;20024;-57
2022/05/16 07:12:50;;;;;;;12.38;3.75;;;23.10;99.90;;;;;;5074513;28;20098;-57
2022/05/16 07:15:17;;;;;;;7.05;3.33;;;23.60;99.90;;;;;;5074401;28;20418;-55
2022/05/16 07:17:43;;;;;;;6.88;3.00;;;23.60;99.90;;;;;;5075655;28;20032;-57
2022/05/16 07:20:10;;;;;;;8.88;3.42;;;23.70;99.90;;;;;;5074292;28;20028;-55
2022/05/16 07:22:40;;;;;;;10.40;3.58;;;23.50;99.90;;;;;;5075509;28;20025;-56
2022/05/16 07:25:06;;;;;;;12.83;3.80;;;23.30;99.90;;;;;;5075714;28;20047;-57
2022/05/16 07:30:16;;;;;;;8.50;3.35;;;22.90;99.90;;;;;;5075637;28;20085;-58
2022/05/16 07:32:44;;;;;;;5.78;2.85;;;22.80;99.90;;;;;;5075746;28;20099;-54
2022/05/16 07:35:18;;;;;;;12.30;3.30;;;22.30;99.90;;;;;;5074010;28;20032;-55
2022/05/16 07:37:44;;;;;;;10.05;3.47;;;22.10;99.90;;;;;;5074032;28;20029;-56
2022/05/16 07:40:11;;;;;;;10.40;3.88;;;21.80;99.90;;;;;;5075166;28;20043;-56
2022/05/16 07:42:37;;;;;;;6.25;3.35;;;21.80;99.90;;;;;;5074227;28;20047;-55
2022/05/16 07:45:06;;;;;;;12.40;3.42;;;21.70;99.90;;;;;;5074567;28;20023;-55
2022/05/16 07:47:32;;;;;;;10.02;3.75;;;21.50;99.90;;;;;;5073876;28;20023;-56
2022/05/16 07:49:59;;;;;;;11.20;4.35;;;21.50;99.90;;;;;;5073599;28;20070;-57
2022/05/16 07:52:26;;;;;;;8.90;4.05;;;21.80;99.90;;;;;;5073440;28;20525;-56
2022/05/16 07:54:52;;;;;;;7.85;3.58;;;22.10;99.90;;;;;;5074142;28;20020;-54
2022/05/16 07:57:18;;;;;;;7.80;3.50;;;22.20;99.90;;;;;;5074106;28;20056;-54
2022/05/16 07:59:45;;;;;;;10.68;3.85;;;22.20;99.90;;;;;;5073530;28;20479;-56
2022/05/16 08:02:12;;;;;;;8.48;3.40;;;22.40;99.90;;;;;;5075031;28;20028;-56
2022/05/16 08:04:37;;;;;;;9.43;4.53;;;22.60;99.90;;;;;;5073526;28;20103;-56
2022/05/16 08:07:04;;;;;;;12.88;3.85;;;22.70;99.90;;;;;;5073476;28;20059;-57
2022/05/16 08:12:26;;;;;;;9.65;4.25;;;22.90;99.90;;;;;;5075188;28;20036;-55
2022/05/16 08:14:52;;;;;;;13.25;3.70;;;22.60;99.90;;;;;;5073146;28;20055;-57
2022/05/16 08:17:18;;;;;;;11.00;3.45;;;23.10;99.90;;;;;;5074488;28;20031;-57
2022/05/16 08:19:44;;;;;;;8.30;3.00;;;24.10;99.90;;;;;;5074216;28;20076;-57
2022/05/16 08:22:11;;;;;;;7.75;3.08;;;25.00;99.90;;;;;;5074293;28;20056;-57
2022/05/16 08:24:36;;;;;;;8.43;3.28;;;25.30;99.90;;;;;;5070724;28;20024;-54
2022/05/16 08:27:02;;;;;;;7.25;3.10;;;25.30;99.90;;;;;;5055941;28;20027;-55
2022/05/16 08:29:40;;;;;;;9.20;3.83;;;25.40;99.90;;;;;;5053736;28;20025;-56
2022/05/16 08:32:07;;;;;;;8.18;3.28;;;25.80;99.90;;;;;;5053053;28;20021;-55
2022/05/16 08:34:32;;;;;;;5.60;2.97;;;26.30;99.90;;;;;;5054181;28;20027;-55
2022/05/16 08:40:01;;;;;;;11.98;3.10;;;26.50;99.90;;;;;;5054070;28;20040;-54
2022/05/16 08:42:56;;;;;;;3.95;3.00;;;27.10;99.90;;;;;;5054041;28;20025;-56
2022/05/16 08:45:36;;;;;;;10.55;3.10;;;27.10;99.40;;;;;;5052723;28;20021;-54
2022/05/16 08:48:28;;;;;;;7.53;2.92;;;26.70;99.00;;;;;;5053956;28;20025;-56
2022/05/16 08:51:04;;;;;;;9.57;3.17;;;27.00;99.20;;;;;;5052504;28;20045;-54
2022/05/16 08:53:41;;;;;;;6.07;2.97;;;27.80;97.40;;;;;;5053822;28;20042;-53
2022/05/16 08:56:16;;;;;;;7.07;3.15;;;28.20;96.70;;;;;;5053887;28;20025;-57
2022/05/16 08:58:44;;;;;;;8.05;3.33;;;28.30;95.80;;;;;;5052555;28;20080;-57
2022/05/16 09:01:13;;;;;;;7.53;3.15;;;28.50;97.40;;;;;;5053626;28;20384;-55
2022/05/16 09:03:57;;;;;;;9.93;3.40;;;29.70;95.70;;;;;;5052957;28;20159;-57
2022/05/16 09:06:33;;;;;;;7.38;3.47;;;31.40;93.80;;;;;;5052683;28;20017;-55
2022/05/16 09:09:07;;;;;;;6.00;2.90;;;32.50;90.00;;;;;;5053440;28;20126;-55
2022/05/16 09:11:42;;;;;;;7.60;3.10;;;33.40;84.80;;;;;;5053795;28;20104;-57
2022/05/16 09:14:28;;;;;;;9.30;3.78;;;33.20;82.80;;;;;;5053590;28;20101;-56
2022/05/16 09:17:00;;;;;;;7.63;3.10;;;33.10;81.70;;;;;;5053090;28;20044;-54
2022/05/16 09:19:49;;;;;;;7.07;3.05;;;33.20;79.00;;;;;;5053391;28;20028;-56
2022/05/16 09:22:45;;;;;;;6.25;3.17;;;33.30;80.50;;;;;;5053735;28;20021;-57
2022/05/16 09:25:19;;;;;;;6.45;3.38;;;34.10;78.50;;;;;;5053415;28;20031;-57
2022/05/16 09:30:46;;;;;;;5.72;2.60;;;33.50;74.70;;;;;;5053082;28;20507;-55
2022/05/16 09:33:19;;;;;;;13.57;3.72;;;33.70;76.70;;;;;;5051957;28;20044;-56
2022/05/16 09:35:59;;;;;;;10.13;3.50;;;35.20;73.40;;;;;;5052123;28;20086;-57
2022/05/16 09:38:25;;;;;;;4.15;2.90;;;35.40;69.60;;;;;;5052299;28;20040;-54
2022/05/16 09:40:59;;;;;;;6.80;3.58;;;36.50;67.70;;;;;;5051822;28;20025;-54
2022/05/16 09:43:27;;;;;;;6.28;3.25;;;36.40;66.50;;;;;;5052785;28;20017;-52
2022/05/16 09:46:16;;;;;;;7.22;3.17;;;36.10;67.10;;;;;;5052005;28;20025;-55
2022/05/16 09:48:43;;;;;;;10.32;2.92;;;35.10;68.20;;;;;;5051996;28;20484;-54
2022/05/16 09:51:09;;;;;;;8.50;3.42;;;35.70;69.40;;;;;;5053089;28;20064;-56
2022/05/16 09:53:42;;;;;;;6.57;4.10;;;36.80;66.30;;;;;;5053144;28;20045;-56
2022/05/16 09:56:26;;;;;;;6.68;3.20;;;36.40;66.60;;;;;;5052715;28;20029;-52
2022/05/16 09:58:56;;;;;;;6.32;3.42;;;37.20;64.30;;;;;;5053364;28;20025;-56
2022/05/16 10:01:31;;;;;;;;;;;37.20;63.70;;;;;;5053501;28;20021;-56
2022/05/16 10:04:20;;;;;;;3.88;3.08;;;36.50;64.40;;;;;;5051762;28;19904;-57
2022/05/16 10:07:02;;;;;;;8.60;3.95;;;36.60;63.70;;;;;;5052470;28;20018;-56
2022/05/16 10:09:36;;;;;;;7.40;3.72;;;36.90;63.90;;;;;;5051472;28;20025;-57
2022/05/16 10:12:03;;;;;;;10.27;3.85;;;36.10;64.20;;;;;;5053293;28;20021;-57
2022/05/16 10:14:30;;;;;;;7.10;4.30;;;35.20;66.50;;;;;;5053007;28;20060;-56
2022/05/16 10:16:56;;;;;;;10.43;3.35;;;33.10;68.30;;;;;;5051708;28;20079;-57
2022/05/16 10:19:27;;;;;;;6.95;3.95;;;32.20;72.10;;;;;;5051824;28;20025;-55
2022/05/16 10:22:01;;;;;;;5.80;3.60;;;31.50;72.90;;;;;;5052764;28;20032;-55
2022/05/16 10:24:31;;;;;;;6.88;3.47;;;31.50;73.10;;;;;;5051619;28;20061;-54
2022/05/16 10:27:01;;;;;;;8.25;3.95;;;31.20;74.50;;;;;;5051883;28;20479;-57
2022/05/16 10:29:31;;;;;;;9.17;4.20;;;31.40;75.10;;;;;;5051323;28;20032;-57
2022/05/16 10:35:07;;;;;;;7.97;4.15;;;30.40;75.40;;;;;;5052872;28;20116;-56
2022/05/16 10:37:37;;;;;;;11.15;5.03;;;30.20;76.20;;;;;;5051875;28;20036;-54
2022/05/16 10:40:08;;;;;;;7.32;3.88;;;29.50;77.60;;;;;;5051930;28;20033;-57
2022/05/16 10:42:55;;;;;;;8.95;4.00;;;29.30;79.30;;;;;;5054431;28;20035;-54
2022/05/16 10:45:25;;;;;;;8.85;4.80;;;29.00;82.20;;;;;;5055632;28;20028;-57
2022/05/16 10:48:08;;;;;;;11.27;4.70;;;28.30;82.90;;;;;;5056229;28;20025;-52
2022/05/16 10:50:52;;;;;;;6.55;3.60;;;27.90;83.70;;;;;;5056334;28;20031;-55
2022/05/16 10:53:23;;;;;;;12.27;4.75;;;27.70;85.70;;;;;;5055754;28;20052;-54
2022/05/16 10:56:10;;;;;;;9.55;4.43;;;27.50;86.30;;;;;;5056144;28;20021;-54
2022/05/16 10:58:58;;;;;;;10.10;4.85;;;27.10;88.30;;;;;;5056382;28;20032;-52
2022/05/16 11:01:43;;;;;;;8.60;4.13;;;27.10;88.20;;;;;;5056002;28;20031;-53
2022/05/16 11:04:59;;;;;;;8.52;3.85;;;26.50;90.30;;;;;;5054811;28;20104;-53
2022/05/16 11:07:43;;;;;;;11.45;4.68;;;26.80;90.20;;;;;;5002708;28;20113;-53
2022/05/16 11:10:21;;;;;;;11.18;4.38;;;26.70;90.80;;;;;;5056162;28;20025;-54
2022/05/16 11:13:21;;;;;;;7.20;4.05;;;26.70;91.70;;;;;;5054540;28;20057;-54
2022/05/16 11:15:55;;;;;;;12.63;3.90;;;26.90;91.00;;;;;;5049991;28;20056;-52
2022/05/16 11:18:40;;;;;;;11.73;3.95;;;27.00;91.30;;;;;;5055574;28;20029;-56
2022/05/16 11:21:36;;;;;;;9.43;4.25;;;27.10;91.20;;;;;;5055092;28;20025;-56
2022/05/16 11:24:10;;;;;;;9.23;4.20;;;26.70;91.60;;;;;;5036377;28;20073;-52
2022/05/16 11:26:47;;;;;;;9.95;4.80;;;26.20;92.30;;;;;;5054494;28;20040;-54
2022/05/16 11:29:36;;;;;;;15.68;4.72;;;26.30;92.80;;;;;;5054186;28;20115;-56
2022/05/16 11:32:15;;;;;;;6.50;4.10;;;26.00;93.30;;;;;;5055437;28;20017;-56
2022/05/16 11:35:13;;;;;;;9.90;4.43;;;25.90;94.60;;;;;;5055422;28;20025;-53
2022/05/16 11:38:01;;;;;;;7.43;3.10;;;25.80;94.70;;;;;;5003073;28;20037;-54
2022/05/16 11:40:52;;;;;;;9.43;3.92;;;26.00;95.60;;;;;;5053953;28;20079;-53
2022/05/16 11:43:26;;;;;;;8.73;3.97;;;26.20;95.60;;;;;;5055478;28;20025;-53
2022/05/16 11:46:17;;;;;;;10.98;4.38;;;26.10;95.60;;;;;;5055304;28;20033;-54
2022/05/16 11:49:00;;;;;;;6.35;2.95;;;26.00;95.60;;;;;;5055253;28;20025;-54
2022/05/16 11:51:48;;;;;;;9.30;3.83;;;26.20;95.80;;;;;;5054872;28;20021;-55
2022/05/16 11:54:19;;;;;;;6.75;3.35;;;26.20;95.70;;;;;;5054012;28;20025;-54
2022/05/16 12:03:06;;;;;;;5.28;2.80;;;26.80;95.60;;;;;;5054740;28;20040;-56
2022/05/16 12:05:43;;;;;;;6.20;3.42;;;27.00;95.30;;;;;;5055089;28;20071;-55
2022/05/16 12:08:37;;;;;;;3.78;2.30;;;27.10;95.00;;;;;;5055040;28;20017;-56
2022/05/16 12:11:03;;;;;;;4.03;2.10;;;27.30;93.30;;;;;;5053297;28;20025;-54
2022/05/16 12:13:32;;;;;;;6.30;2.97;;;27.40;92.80;;;;;;5053226;28;20025;-51
2022/05/16 12:16:28;;;;;;;6.75;1.98;;;27.60;92.10;;;;;;5055167;28;20027;-52
2022/05/16 12:19:22;;;;;;;3.75;1.90;;;27.60;92.30;;;;;;5051918;28;20115;-55
2022/05/16 12:22:04;;;;;;;4.32;2.25;;;27.70;91.70;;;;;;5054459;28;20472;-57
2022/05/16 12:24:53;;;;;;;6.47;2.72;;;27.80;92.70;;;;;;5054729;28;20499;-54
2022/05/16 12:27:29;;;;;;;4.03;2.05;;;27.90;92.00;;;;;;5052165;28;20024;-55
2022/05/16 12:30:01;;;;;;;6.50;2.50;;;28.00;91.90;;;;;;5054523;28;20021;-52
2022/05/16 12:32:30;;;;;;;8.00;3.42;;;28.10;92.00;;;;;;5053358;28;20082;-54
2022/05/16 12:35:28;;;;;;;10.52;3.40;;;27.80;92.70;;;;;;5052960;28;20491;-54
2022/05/16 12:37:54;;;;;;;5.68;3.50;;;27.60;93.40;;;;;;5054021;28;20029;-53
2022/05/16 12:40:51;;;;;;;9.70;3.60;;;27.60;94.00;;;;;;5054374;28;20033;-53
2022/05/16 12:43:28;;;;;;;7.95;3.85;;;27.70;95.40;;;;;;5052751;28;20033;-53
2022/05/16 12:46:08;;;;;;;17.05;4.65;;;27.60;98.20;;;;;;5054095;28;20471;-55
2022/05/16 12:48:51;;;;;;;17.88;4.60;;;27.50;99.90;;;;;;5053923;28;20024;-55
2022/05/16 12:51:40;;;;;;;10.98;4.47;;;27.40;99.90;;;;;;5052695;28;20025;-56
2022/05/16 12:54:19;;;;;;;7.28;3.22;;;27.30;99.90;;;;;;5053856;28;20025;-58
2022/05/16 12:56:55;;;;;;;8.35;2.88;;;27.40;99.90;;;;;;5053249;28;20082;-56
2022/05/16 12:59:47;;;;;;;4.38;2.30;;;27.60;99.90;;;;;;5052655;28;20025;-55
2022/05/16 13:02:26;;;;;;;6.38;2.20;;;27.70;99.90;;;;;;5052506;28;20033;-56
2022/05/16 13:05:24;;;;;;;5.65;2.50;;;27.70;99.90;;;;;;5051985;28;20029;-55
2022/05/16 13:08:11;;;;;;;4.68;2.35;;;27.90;99.90;;;;;;5052659;28;20112;-55
2022/05/16 13:10:48;;;;;;;4.00;2.55;;;27.70;99.90;;;;;;5053774;28;20021;-58
2022/05/16 13:13:41;;;;;;;10.20;2.58;;;27.90;99.90;;;;;;5053644;28;20060;-55
2022/05/16 13:16:21;;;;;;;4.65;2.78;;;27.90;99.90;;;;;;5052246;28;20037;-57
2022/05/16 13:19:15;;;;;;;4.05;2.85;;;27.80;99.90;;;;;;5052799;28;20056;-57
2022/05/16 13:22:00;;;;;;;4.57;3.00;;;27.50;99.90;;;;;;5053665;28;20031;-57
2022/05/16 13:24:27;;;;;;;10.90;3.15;;;27.20;99.90;;;;;;5052519;28;20021;-51
2022/05/16 13:29:40;;;;;;;7.22;3.70;;;27.20;99.90;;;;;;5053758;28;20418;-55
2022/05/16 13:32:11;;;;;;;4.13;2.92;;;27.30;99.90;;;;;;5052427;28;20025;-55
2022/05/16 13:35:01;;;;;;;6.05;3.50;;;27.50;99.90;;;;;;5052275;28;20479;-54
2022/05/16 13:37:46;;;;;;;9.00;3.47;;;27.60;99.90;;;;;;5052122;28;20025;-55
2022/05/16 13:40:20;;;;;;;7.45;3.38;;;27.70;99.90;;;;;;5053635;28;20033;-56
2022/05/16 13:42:46;;;;;;;8.07;3.70;;;27.70;99.90;;;;;;5053172;28;20108;-57
2022/05/16 13:45:11;;;;;;;8.18;3.70;;;27.70;99.90;;;;;;5052320;28;20064;-56